Time;durP1;ratioP1;P1;durP2;ratioP2;P2;SDS_P1;SDS_P2;PMS_P1;PMS_P2;Temp;Humidity;BMP_temperature;BMP_pressure;BME280_temperature;BME280_humidity;BME280_pressure;Samples;Min_cycle;Max_cycle;Signal;HPM_P1;HPM_P2
2022/10/19 00:01:42;;;;;;;0.52;0.35;;;;;;;8.86;100.00;101956.53;5032622;28;20723;-45
2022/10/19 00:04:07;;;;;;;3.17;0.10;;;;;;;8.85;100.00;101953.03;5035161;28;20028;-46
2022/10/19 00:06:35;;;;;;;1.75;0.32;;;;;;;8.83;100.00;101938.28;5034428;28;20087;-46
2022/10/19 00:09:13;;;;;;;1.67;0.20;;;;;;;8.77;100.00;101942.34;5034175;28;20429;-45
2022/10/19 00:11:41;;;;;;;1.45;0.60;;;;;;;8.67;100.00;101941.53;5037977;28;20068;-45
2022/10/19 00:14:09;;;;;;;2.78;0.30;;;;;;;8.67;100.00;101937.09;5037359;28;20041;-46
2022/10/19 00:16:36;;;;;;;1.88;0.22;;;;;;;8.76;100.00;101930.09;5039680;28;20048;-48
2022/10/19 00:19:05;;;;;;;0.95;0.60;;;;;;;8.71;100.00;101922.59;5039366;28;20028;-50
2022/10/19 00:21:31;;;;;;;6.70;1.20;;;;;;;8.65;100.00;101919.72;5034231;28;20052;-52
2022/10/19 00:23:56;;;;;;;4.43;0.68;;;;;;;8.67;100.00;101904.50;5033821;28;20033;-47
2022/10/19 00:26:22;;;;;;;3.28;1.05;;;;;;;8.68;100.00;101906.19;5034523;28;20493;-47
2022/10/19 00:28:47;;;;;;;6.50;0.50;;;;;;;8.77;100.00;101899.19;5038429;28;20077;-45
2022/10/19 00:31:15;;;;;;;4.82;0.50;;;;;;;8.86;100.00;101901.81;5030131;28;20113;-45
2022/10/19 00:33:43;;;;;;;2.25;0.20;;;;;;;8.92;100.00;101903.03;5039892;28;20124;-46
2022/10/19 00:36:21;;;;;;;4.47;0.63;;;;;;;8.83;100.00;101896.81;5043405;28;20020;-47
2022/10/19 00:38:46;;;;;;;3.10;1.75;;;;;;;8.82;100.00;101895.13;5034605;28;20559;-45
2022/10/19 00:41:12;;;;;;;6.20;0.30;;;;;;;8.88;100.00;101907.81;5038090;28;20152;-47
2022/10/19 00:44:14;;;;;;;7.60;0.60;;;;;;;8.91;100.00;101904.84;5044554;28;20378;-45
2022/10/19 00:46:46;;;;;;;0.82;0.50;;;;;;;8.90;100.00;101897.88;5033701;28;20049;-46
2022/10/19 00:49:25;;;;;;;2.88;0.15;;;;;;;8.87;100.00;101895.53;5042660;28;20025;-45
2022/10/19 00:52:24;;;;;;;9.60;0.82;;;;;;;8.92;100.00;101893.28;5039654;28;20037;-47
2022/10/19 00:54:51;;;;;;;2.80;0.68;;;;;;;8.93;100.00;101883.53;5032629;28;20045;-45
2022/10/19 00:57:17;;;;;;;2.92;1.52;;;;;;;8.89;100.00;101882.19;5037103;28;20132;-46
2022/10/19 00:59:44;;;;;;;1.33;0.28;;;;;;;8.92;100.00;101872.13;5038354;28;20031;-46
2022/10/19 01:02:09;;;;;;;4.15;0.35;;;;;;;8.88;100.00;101884.00;5033043;28;20037;-53
2022/10/19 01:04:39;;;;;;;3.70;0.28;;;;;;;8.87;100.00;101874.38;5041253;28;20033;-48
2022/10/19 01:07:06;;;;;;;5.43;0.30;;;;;;;8.84;100.00;101879.13;5041549;28;20025;-47
2022/10/19 01:09:32;;;;;;;6.00;0.30;;;;;;;8.87;100.00;101876.19;5039242;28;20110;-47
2022/10/19 01:12:14;;;;;;;7.07;1.40;;;;;;;8.87;100.00;101870.91;5039549;28;20087;-46
2022/10/19 01:14:50;;;;;;;4.72;0.70;;;;;;;8.99;100.00;101872.38;5038459;28;20123;-46
2022/10/19 01:17:22;;;;;;;1.95;0.60;;;;;;;8.97;100.00;101879.63;5036589;28;20033;-48
2022/10/19 01:19:57;;;;;;;4.22;0.80;;;;;;;8.99;100.00;101877.69;5039597;28;20953;-45
2022/10/19 01:22:31;;;;;;;9.93;0.77;;;;;;;9.09;100.00;101872.34;5036323;28;20116;-48
2022/10/19 01:25:18;;;;;;;4.32;0.40;;;;;;;9.02;100.00;101871.25;5037272;28;20025;-45
2022/10/19 01:27:56;;;;;;;3.03;1.02;;;;;;;9.04;100.00;101870.13;5040163;28;20103;-48
2022/10/19 01:30:35;;;;;;;9.73;1.42;;;;;;;9.06;100.00;101864.69;5040444;28;20033;-45
2022/10/19 01:33:23;;;;;;;4.47;0.65;;;;;;;9.10;100.00;101863.41;5036097;28;20150;-45
2022/10/19 01:36:04;;;;;;;13.63;2.83;;;;;;;9.12;100.00;101869.41;5036470;28;20398;-46
2022/10/19 01:38:30;;;;;;;;;;;;;;;9.16;100.00;101868.09;5035260;28;20430;-46
2022/10/19 01:41:19;;;;;;;0.68;0.20;;;;;;;9.08;100.00;101862.72;5036486;28;19924;-45
2022/10/19 01:44:00;;;;;;;3.03;0.40;;;;;;;9.05;100.00;101849.78;5042583;28;20045;-45
2022/10/19 01:46:42;;;;;;;2.20;0.82;;;;;;;9.07;100.00;101851.31;5041373;28;20029;-45
2022/10/19 01:49:28;;;;;;;;;;;;;;;9.14;100.00;101846.28;5036430;28;20033;-46
2022/10/19 01:51:58;;;;;;;4.30;0.55;;;;;;;9.15;100.00;101847.94;5035090;28;19923;-49
2022/10/19 01:54:29;;;;;;;5.10;0.95;;;;;;;9.15;100.00;101846.09;5039149;28;20168;-49
2022/10/19 01:56:57;;;;;;;8.00;1.33;;;;;;;9.11;100.00;101844.75;5041473;28;20083;-46
2022/10/19 01:59:25;;;;;;;3.40;0.20;;;;;;;9.10;100.00;101834.31;5035357;28;20112;-49
2022/10/19 02:01:52;;;;;;;3.60;0.45;;;;;;;9.15;100.00;101827.59;5037116;28;20467;-45
2022/10/19 02:04:22;;;;;;;2.13;0.80;;;;;;;9.14;100.00;101828.56;5039749;28;20044;-47
2022/10/19 02:06:50;;;;;;;10.73;0.63;;;;;;;9.21;100.00;101820.84;5045076;28;20505;-45
2022/10/19 02:09:19;;;;;;;7.13;1.13;;;;;;;9.21;100.00;101817.38;5041571;28;20609;-46
2022/10/19 02:11:48;;;;;;;4.22;0.55;;;;;;;9.19;100.00;101806.97;5041818;28;20132;-52
2022/10/19 02:14:17;;;;;;;3.38;0.60;;;;;;;9.10;100.00;101808.69;5036963;28;20100;-47
2022/10/19 02:16:48;;;;;;;8.40;1.58;;;;;;;9.16;100.00;101815.19;5038021;28;20030;-48
2022/10/19 02:19:15;;;;;;;5.28;0.75;;;;;;;9.29;100.00;101822.75;5035916;28;20021;-45
2022/10/19 02:21:41;;;;;;;13.77;1.70;;;;;;;9.25;100.00;101821.41;5035307;28;20501;-47
2022/10/19 02:24:06;;;;;;;7.60;0.68;;;;;;;9.22;100.00;101813.78;5033623;28;20022;-46
2022/10/19 02:26:32;;;;;;;4.90;1.38;;;;;;;9.28;100.00;101819.28;5040901;28;20499;-48
2022/10/19 02:28:58;;;;;;;6.30;1.02;;;;;;;9.31;100.00;101810.22;5039960;28;20183;-46
2022/10/19 02:31:24;;;;;;;9.73;1.20;;;;;;;9.27;100.00;101811.50;5032279;28;20119;-49
2022/10/19 02:33:50;;;;;;;8.05;0.95;;;;;;;9.29;100.00;101810.38;5033851;28;20378;-49
2022/10/19 02:36:16;;;;;;;7.15;0.60;;;;;;;9.31;100.00;101804.91;5037933;28;20029;-45
2022/10/19 02:38:42;;;;;;;15.73;1.33;;;;;;;9.30;100.00;101792.69;5034986;28;20044;-46
2022/10/19 02:41:15;;;;;;;12.88;1.75;;;;;;;9.28;100.00;101800.75;5035260;28;20676;-47
2022/10/19 02:43:43;;;;;;;7.53;1.77;;;;;;;9.31;100.00;101789.88;5036790;28;20021;-46
2022/10/19 02:46:31;;;;;;;10.82;2.33;;;;;;;9.32;100.00;101786.25;5037187;28;20033;-46
2022/10/19 02:48:57;;;;;;;5.45;0.73;;;;;;;9.25;100.00;101777.25;5034349;28;20033;-45
2022/10/19 02:51:34;;;;;;;7.43;2.08;;;;;;;9.33;100.00;101776.50;5039218;28;20029;-46
2022/10/19 02:54:00;;;;;;;2.08;0.25;;;;;;;9.29;100.00;101761.88;5034081;28;20029;-45
2022/10/19 02:56:25;;;;;;;8.25;0.40;;;;;;;9.30;100.00;101752.97;5042714;28;20059;-45
2022/10/19 02:58:51;;;;;;;13.05;1.38;;;;;;;9.29;100.00;101752.16;5034834;28;20433;-45
2022/10/19 03:01:16;;;;;;;7.90;1.30;;;;;;;9.30;100.00;101756.44;5040664;28;20032;-45
2022/10/19 03:03:42;;;;;;;9.93;1.52;;;;;;;9.29;100.00;101757.44;5038830;28;20032;-45
2022/10/19 03:06:07;;;;;;;8.00;0.63;;;;;;;9.37;100.00;101749.56;5030784;28;20025;-49
2022/10/19 03:08:32;;;;;;;7.65;1.42;;;;;;;9.36;100.00;101755.00;5040777;28;20462;-46
2022/10/19 03:10:58;;;;;;;4.75;0.98;;;;;;;9.32;100.00;101745.69;5037932;28;20057;-46
2022/10/19 03:13:23;;;;;;;6.60;1.27;;;;;;;9.21;100.00;101740.66;5038022;28;20142;-45
2022/10/19 03:15:49;;;;;;;6.70;0.60;;;;;;;9.10;100.00;101733.75;5037866;28;20029;-45
2022/10/19 03:18:14;;;;;;;6.55;0.80;;;;;;;9.23;100.00;101733.38;5044644;28;20048;-46
2022/10/19 03:20:40;;;;;;;7.13;1.27;;;;;;;9.24;100.00;101743.84;5038565;28;20031;-47
2022/10/19 03:23:05;;;;;;;3.45;0.70;;;;;;;9.24;100.00;101754.41;5036659;28;20383;-45
2022/10/19 03:25:31;;;;;;;10.52;1.60;;;;;;;9.28;100.00;101750.47;5044991;28;20032;-48
2022/10/19 03:27:56;;;;;;;1.35;0.25;;;;;;;9.29;100.00;101746.00;5039164;28;20111;-49
2022/10/19 03:30:21;;;;;;;9.50;1.30;;;;;;;9.33;100.00;101739.44;5047615;28;20040;-48
2022/10/19 03:32:47;;;;;;;4.55;0.40;;;;;;;9.42;100.00;101737.69;5035193;28;20104;-47
2022/10/19 03:35:12;;;;;;;5.78;0.93;;;;;;;9.38;100.00;101745.94;5046059;28;20028;-47
2022/10/19 03:37:37;;;;;;;3.05;0.75;;;;;;;9.30;100.00;101740.56;5035661;28;20104;-48
2022/10/19 03:40:03;;;;;;;4.80;1.00;;;;;;;9.27;100.00;101740.88;5039444;28;20052;-48
2022/10/19 03:42:29;;;;;;;4.18;0.77;;;;;;;9.29;100.00;101740.72;5034100;28;20250;-49
2022/10/19 03:44:54;;;;;;;4.97;0.38;;;;;;;9.22;100.00;101737.03;5031877;28;20030;-47
2022/10/19 03:47:19;;;;;;;4.13;0.57;;;;;;;9.19;100.00;101730.22;5028482;28;20095;-48
2022/10/19 03:49:45;;;;;;;2.92;0.32;;;;;;;9.34;100.00;101736.63;5030649;28;20038;-46
2022/10/19 03:52:10;;;;;;;6.75;0.85;;;;;;;9.26;100.00;101725.97;5036072;28;20112;-48
2022/10/19 03:54:35;;;;;;;6.93;0.43;;;;;;;9.29;100.00;101714.25;5041638;28;20116;-45
2022/10/19 03:57:01;;;;;;;7.15;0.88;;;;;;;9.39;100.00;101710.53;5037929;28;20080;-46
2022/10/19 03:59:26;;;;;;;4.65;0.68;;;;;;;9.37;100.00;101699.28;5036757;28;20029;-51
2022/10/19 04:01:52;;;;;;;3.40;0.32;;;;;;;9.42;100.00;101708.56;5030506;28;20423;-45
2022/10/19 04:04:18;;;;;;;2.67;1.15;;;;;;;9.38;100.00;101692.16;5031984;28;20075;-46
2022/10/19 04:06:46;;;;;;;7.85;0.65;;;;;;;9.44;100.00;101696.00;5038710;28;20029;-45
2022/10/19 04:09:16;;;;;;;6.97;0.38;;;;;;;9.45;100.00;101700.31;5034975;28;20032;-45
2022/10/19 04:11:42;;;;;;;12.95;1.27;;;;;;;9.32;100.00;101690.97;5039193;28;20431;-45
2022/10/19 04:14:07;;;;;;;4.57;1.27;;;;;;;9.22;100.00;101708.75;5033306;28;20060;-46
2022/10/19 04:16:33;;;;;;;13.23;2.35;;;;;;;9.28;100.00;101707.31;5040874;28;20032;-46
2022/10/19 04:18:59;;;;;;;4.85;0.82;;;;;;;9.36;100.00;101708.19;5041000;28;20249;-45
2022/10/19 04:21:31;;;;;;;5.60;0.20;;;;;;;9.50;100.00;101708.63;5037081;28;20115;-46
2022/10/19 04:24:17;;;;;;;0.60;0.47;;;;;;;9.47;100.00;101714.22;5045422;28;20037;-46
2022/10/19 04:26:47;;;;;;;5.30;0.13;;;;;;;9.48;100.00;101707.97;5042641;28;20116;-47
2022/10/19 04:29:14;;;;;;;5.70;1.35;;;;;;;9.50;100.00;101711.25;5036704;28;20466;-45
2022/10/19 04:31:40;;;;;;;6.05;1.83;;;;;;;9.52;100.00;101707.47;5040845;28;20029;-48
2022/10/19 04:34:06;;;;;;;15.25;2.40;;;;;;;9.55;100.00;101701.91;5034991;28;20048;-45
2022/10/19 04:36:32;;;;;;;2.67;0.50;;;;;;;9.51;100.00;101692.59;5040488;28;20048;-46
2022/10/19 04:38:57;;;;;;;6.75;0.50;;;;;;;9.50;100.00;101700.69;5044804;28;20041;-49
2022/10/19 04:41:23;;;;;;;5.45;0.30;;;;;;;9.48;100.00;101692.09;5041329;28;20164;-48
2022/10/19 04:43:53;;;;;;;5.13;0.43;;;;;;;9.48;100.00;101684.97;5046320;28;20035;-51
2022/10/19 04:46:19;;;;;;;4.78;0.65;;;;;;;9.51;100.00;101691.78;5034534;28;20029;-45
2022/10/19 04:48:45;;;;;;;2.72;0.50;;;;;;;9.55;100.00;101685.16;5035435;28;20095;-45
2022/10/19 04:51:11;;;;;;;4.93;0.60;;;;;;;9.63;100.00;101676.44;5037912;28;20099;-45
2022/10/19 04:53:38;;;;;;;7.38;0.73;;;;;;;9.64;100.00;101676.31;5041622;28;20517;-46
2022/10/19 04:56:06;;;;;;;5.88;0.43;;;;;;;9.60;100.00;101667.84;5040977;28;20121;-45
2022/10/19 04:58:32;;;;;;;6.05;1.65;;;;;;;9.48;100.00;101666.44;5032397;28;20080;-46
2022/10/19 05:00:57;;;;;;;7.15;1.80;;;;;;;9.55;100.00;101666.63;5036219;28;20026;-46
2022/10/19 05:03:23;;;;;;;5.53;0.30;;;;;;;9.51;100.00;101663.47;5038428;28;20552;-47
2022/10/19 05:05:49;;;;;;;6.30;1.25;;;;;;;9.47;100.00;101667.41;5032833;28;20024;-45
2022/10/19 05:08:15;;;;;;;17.13;2.05;;;;;;;9.53;100.00;101660.69;5045677;28;20028;-47
2022/10/19 05:10:40;;;;;;;5.72;0.82;;;;;;;9.50;100.00;101655.66;5031738;28;20376;-46
2022/10/19 05:13:06;;;;;;;9.45;1.85;;;;;;;9.52;100.00;101656.34;5039132;28;20066;-45
2022/10/19 05:15:31;;;;;;;11.65;0.65;;;;;;;9.53;100.00;101658.84;5042917;28;20376;-45
2022/10/19 05:17:57;;;;;;;6.45;1.88;;;;;;;9.56;100.00;101652.41;5044277;28;20036;-46
2022/10/19 05:20:23;;;;;;;6.78;1.38;;;;;;;9.55;100.00;101656.03;5040545;28;20051;-46
2022/10/19 05:22:48;;;;;;;6.53;1.05;;;;;;;9.63;100.00;101650.81;5037985;28;20393;-47
2022/10/19 05:25:14;;;;;;;8.93;2.03;;;;;;;9.64;100.00;101655.13;5037795;28;20048;-45
2022/10/19 05:27:39;;;;;;;4.57;2.38;;;;;;;9.64;100.00;101643.69;5035835;28;20068;-49
2022/10/19 05:30:07;;;;;;;4.35;0.73;;;;;;;9.63;100.00;101639.38;5032860;28;20057;-48
2022/10/19 05:32:32;;;;;;;7.35;0.82;;;;;;;9.52;100.00;101638.63;5035190;28;20029;-46
2022/10/19 05:34:58;;;;;;;9.23;0.60;;;;;;;9.54;100.00;101641.16;5034263;28;20383;-45
2022/10/19 05:37:24;;;;;;;2.50;0.70;;;;;;;9.50;100.00;101639.78;5038679;28;20029;-45
2022/10/19 05:39:50;;;;;;;3.35;0.30;;;;;;;9.46;100.00;101633.16;5033786;28;20049;-46
2022/10/19 05:42:15;;;;;;;9.32;0.65;;;;;;;9.44;100.00;101629.81;5027288;28;20510;-47
2022/10/19 05:44:40;;;;;;;4.05;0.73;;;;;;;9.52;100.00;101629.88;5033816;28;20018;-46
2022/10/19 05:47:06;;;;;;;10.57;1.50;;;;;;;9.60;100.00;101621.97;5032237;28;20029;-48
2022/10/19 05:49:31;;;;;;;6.43;0.73;;;;;;;9.62;100.00;101622.66;5030020;28;20022;-46
2022/10/19 05:51:56;;;;;;;6.82;1.05;;;;;;;9.59;100.00;101630.91;5031845;28;20036;-45
2022/10/19 05:54:22;;;;;;;10.18;2.05;;;;;;;9.55;100.00;101619.81;5036485;28;20528;-47
2022/10/19 05:56:48;;;;;;;2.90;0.80;;;;;;;9.53;100.00;101613.03;5034119;28;20060;-50
2022/10/19 05:59:16;;;;;;;5.22;1.20;;;;;;;9.48;100.00;101623.25;5039173;28;20314;-48
2022/10/19 06:01:41;;;;;;;3.80;0.40;;;;;;;9.43;100.00;101617.59;5034520;28;20109;-46
2022/10/19 06:04:07;;;;;;;5.53;1.02;;;;;;;9.34;100.00;101611.41;5034698;28;20464;-48
2022/10/19 06:06:33;;;;;;;5.57;1.45;;;;;;;9.39;100.00;101614.41;5031581;28;20040;-46
2022/10/19 06:08:59;;;;;;;5.75;0.98;;;;;;;9.32;100.00;101616.84;5033496;28;20033;-46
2022/10/19 06:11:27;;;;;;;3.67;0.30;;;;;;;9.38;100.00;101620.69;5030848;28;20191;-47
2022/10/19 06:13:55;;;;;;;4.97;0.60;;;;;;;9.44;100.00;101619.25;5033150;28;20335;-47
2022/10/19 06:16:23;;;;;;;14.43;2.03;;;;;;;9.53;100.00;101620.97;5036753;28;22422;-51
2022/10/19 06:18:48;;;;;;;4.95;1.45;;;;;;;9.48;100.00;101612.66;5033263;28;20116;-47
2022/10/19 06:21:17;;;;;;;8.43;1.42;;;;;;;9.43;100.00;101610.47;5026360;28;20112;-46
2022/10/19 06:23:42;;;;;;;6.13;0.73;;;;;;;9.41;100.00;101601.03;5033779;28;20052;-45
2022/10/19 06:26:13;;;;;;;3.22;1.05;;;;;;;9.49;100.00;101603.72;5033650;28;20021;-46
2022/10/19 06:28:40;;;;;;;2.30;1.07;;;;;;;9.51;100.00;101591.97;5039282;28;20045;-48
2022/10/19 06:31:06;;;;;;;4.18;0.30;;;;;;;9.57;100.00;101593.16;5038711;28;20775;-46
2022/10/19 06:33:32;;;;;;;9.23;1.58;;;;;;;9.62;100.00;101593.53;5036079;28;20037;-48
2022/10/19 06:36:08;;;;;;;6.32;1.33;;;;;;;9.68;100.00;101582.31;5037209;28;20017;-48
2022/10/19 06:38:33;;;;;;;12.30;2.28;;;;;;;9.73;100.00;101595.06;5027763;28;20025;-46
2022/10/19 06:40:59;;;;;;;4.32;0.95;;;;;;;9.77;100.00;101589.31;5033278;28;20639;-47
2022/10/19 06:43:26;;;;;;;3.05;0.57;;;;;;;9.81;100.00;101595.13;5030247;28;20057;-47
2022/10/19 06:45:51;;;;;;;8.07;1.48;;;;;;;9.83;100.00;101586.03;5033355;28;20017;-46
2022/10/19 06:48:16;;;;;;;11.55;1.23;;;;;;;9.90;100.00;101583.56;5035855;28;20033;-45
2022/10/19 06:50:42;;;;;;;9.68;1.60;;;;;;;9.98;100.00;101577.47;5034247;28;20073;-49
2022/10/19 06:53:07;;;;;;;6.53;2.67;;;;;;;9.98;100.00;101572.16;5032371;28;20030;-45
2022/10/19 06:55:32;;;;;;;9.40;1.50;;;;;;;10.04;100.00;101572.38;5034017;28;20112;-46
2022/10/19 06:58:00;;;;;;;1.80;0.68;;;;;;;10.13;100.00;101580.34;5034213;28;20040;-46
2022/10/19 07:00:29;;;;;;;11.35;1.77;;;;;;;10.14;100.00;101580.16;5036957;28;20030;-45
2022/10/19 07:02:55;;;;;;;6.50;0.63;;;;;;;10.21;100.00;101588.31;5040106;28;20056;-45
2022/10/19 07:05:20;;;;;;;6.93;1.65;;;;;;;10.31;100.00;101590.84;5038628;28;20037;-46
2022/10/19 07:07:46;;;;;;;12.48;1.40;;;;;;;10.41;100.00;101588.91;5034827;28;20075;-46
2022/10/19 07:10:12;;;;;;;6.07;0.73;;;;;;;10.45;100.00;101584.91;5035002;28;20167;-46
2022/10/19 07:12:37;;;;;;;5.25;0.75;;;;;;;10.53;100.00;101576.97;5031150;28;20432;-47
2022/10/19 07:15:03;;;;;;;9.48;1.73;;;;;;;10.57;100.00;101575.66;5036993;28;20028;-45
2022/10/19 07:17:28;;;;;;;6.70;1.80;;;;;;;10.60;100.00;101559.41;5031132;28;20195;-45
2022/10/19 07:19:54;;;;;;;12.52;2.50;;;;;;;10.64;100.00;101557.28;5008266;28;20083;-46
2022/10/19 07:22:19;;;;;;;10.07;1.45;;;;;;;10.68;100.00;101558.56;5025609;28;20531;-47
2022/10/19 07:24:44;;;;;;;5.45;1.50;;;;;;;10.73;100.00;101558.91;5030625;28;20021;-46
2022/10/19 07:27:10;;;;;;;3.97;2.05;;;;;;;10.69;100.00;101561.06;5031440;28;20024;-48
2022/10/19 07:29:35;;;;;;;6.88;1.65;;;;;;;10.73;100.00;101555.44;5030954;28;20037;-48
2022/10/19 07:32:00;;;;;;;6.25;1.17;;;;;;;10.81;100.00;101552.78;5041276;28;20113;-47
2022/10/19 07:34:26;;;;;;;7.82;1.42;;;;;;;10.86;100.00;101547.81;5039378;28;20359;-49
2022/10/19 07:36:52;;;;;;;14.95;3.13;;;;;;;10.86;100.00;101548.63;5033600;28;20083;-47
2022/10/19 07:39:17;;;;;;;5.57;1.27;;;;;;;10.93;100.00;101538.19;5032316;28;20112;-50
2022/10/19 07:41:44;;;;;;;8.80;2.25;;;;;;;10.98;100.00;101532.38;5037771;28;20055;-50
2022/10/19 07:44:10;;;;;;;6.28;1.52;;;;;;;11.05;100.00;101538.69;5034117;28;20044;-48
2022/10/19 07:46:36;;;;;;;7.90;1.77;;;;;;;11.08;100.00;101548.97;5034808;28;20359;-51
2022/10/19 07:49:04;;;;;;;9.07;2.05;;;;;;;11.08;100.00;101544.47;5036790;28;20120;-50
2022/10/19 07:51:30;;;;;;;10.15;1.20;;;;;;;11.08;100.00;101547.13;5037646;28;20038;-49
2022/10/19 07:53:57;;;;;;;4.25;1.35;;;;;;;11.16;100.00;101545.47;5033038;28;20033;-45
2022/10/19 07:56:24;;;;;;;10.85;2.10;;;;;;;11.21;100.00;101538.63;5042962;28;20029;-47
2022/10/19 07:58:51;;;;;;;9.20;2.22;;;;;;;11.30;100.00;101542.91;5033068;28;20026;-45
2022/10/19 08:01:19;;;;;;;14.38;2.97;;;;;;;11.40;100.00;101541.91;5045276;28;20087;-46
2022/10/19 08:03:46;;;;;;;8.70;2.35;;;;;;;11.45;100.00;101537.75;5040071;28;20020;-47
2022/10/19 08:06:15;;;;;;;3.85;1.42;;;;;;;11.55;100.00;101542.84;5036007;28;20152;-46
2022/10/19 08:08:40;;;;;;;13.13;1.88;;;;;;;11.56;100.00;101542.69;5037282;28;20037;-46
2022/10/19 08:11:15;;;;;;;3.70;1.17;;;;;;;11.54;100.00;101534.06;5043069;28;20028;-46
2022/10/19 08:13:41;;;;;;;14.70;3.22;;;;;;;11.61;100.00;101520.09;5043566;28;20078;-47
2022/10/19 08:16:19;;;;;;;6.60;1.13;;;;;;;11.67;100.00;101522.91;5046967;28;20059;-48
2022/10/19 08:18:44;;;;;;;7.00;1.30;;;;;;;11.69;100.00;101515.56;5042360;28;20072;-49
2022/10/19 08:21:10;;;;;;;7.47;1.67;;;;;;;11.71;100.00;101513.56;5044045;28;20143;-47
2022/10/19 08:23:35;;;;;;;8.82;2.25;;;;;;;11.74;100.00;101496.44;5045453;28;20033;-46
2022/10/19 08:26:00;;;;;;;13.43;1.75;;;;;;;11.80;100.00;101493.13;5041736;28;20116;-46
2022/10/19 08:28:26;;;;;;;7.95;1.52;;;;;;;11.85;100.00;101493.41;5050426;28;20128;-48
2022/10/19 08:30:56;;;;;;;7.80;1.48;;;;;;;11.86;100.00;101495.09;5037492;28;20536;-50
2022/10/19 08:33:22;;;;;;;8.37;1.77;;;;;;;11.93;100.00;101498.72;5034638;28;20037;-47
2022/10/19 08:35:47;;;;;;;9.90;2.00;;;;;;;12.00;100.00;101506.78;5039458;28;20453;-50
2022/10/19 08:38:13;;;;;;;8.77;1.75;;;;;;;12.04;100.00;101505.47;5043095;28;20055;-46
2022/10/19 08:40:38;;;;;;;6.63;1.00;;;;;;;12.08;100.00;101508.56;5049674;28;20107;-46
2022/10/19 08:43:12;;;;;;;18.45;3.35;;;;;;;12.12;100.00;101497.41;5040767;28;20478;-52
2022/10/19 08:45:39;;;;;;;11.55;1.52;;;;;;;12.16;100.00;101492.59;5044025;28;20033;-47
2022/10/19 08:48:14;;;;;;;4.85;1.30;;;;;;;12.21;100.00;101477.75;5039892;28;20389;-46
2022/10/19 08:50:42;;;;;;;12.57;1.92;;;;;;;12.24;100.00;101489.88;5044719;28;20040;-49
2022/10/19 08:53:26;;;;;;;5.88;2.90;;;;;;;12.31;100.00;101477.50;5042155;28;20460;-47
2022/10/19 08:56:32;;;;;;;5.57;1.23;;;;;;;12.41;100.00;101471.94;5049063;28;20030;-49
2022/10/19 08:59:22;;;;;;;6.65;1.00;;;;;;;12.47;100.00;101455.28;5033100;28;20041;-51
2022/10/19 09:01:53;;;;;;;8.23;1.40;;;;;;;12.50;100.00;101454.94;5037202;28;20116;-46
2022/10/19 09:04:27;;;;;;;12.13;1.90;;;;;;;12.61;100.00;101456.31;5044742;28;20059;-48
2022/10/19 09:07:16;;;;;;;13.02;3.05;;;;;;;12.72;100.00;101447.88;5034735;28;20028;-47
2022/10/19 09:09:45;;;;;;;10.88;1.42;;;;;;;12.84;100.00;101446.44;5033012;28;20041;-49
2022/10/19 09:12:15;;;;;;;6.43;1.15;;;;;;;12.95;100.00;101444.34;5045634;28;20418;-46
2022/10/19 09:15:02;;;;;;;3.00;0.77;;;;;;;12.99;100.00;101440.31;5037350;28;20052;-49
2022/10/19 09:17:29;;;;;;;11.52;1.83;;;;;;;13.01;100.00;101447.09;5036621;28;20029;-50
2022/10/19 09:19:55;;;;;;;8.20;1.48;;;;;;;13.02;100.00;101447.94;5043246;28;20062;-48
2022/10/19 09:22:25;;;;;;;4.93;1.92;;;;;;;13.02;100.00;101445.25;5049894;28;20417;-48
2022/10/19 09:25:02;;;;;;;5.65;1.50;;;;;;;13.11;100.00;101444.16;5042138;28;20048;-48
2022/10/19 09:27:37;;;;;;;6.15;0.95;;;;;;;13.21;100.00;101446.53;5043524;28;20552;-50
2022/10/19 09:30:19;;;;;;;8.75;1.52;;;;;;;13.27;100.00;101436.00;5034791;28;20044;-48
2022/10/19 09:32:47;;;;;;;9.07;1.05;;;;;;;13.35;100.00;101423.63;5044450;28;20066;-47
2022/10/19 09:35:15;;;;;;;5.68;0.57;;;;;;;13.40;100.00;101429.19;5038188;28;20028;-48
2022/10/19 09:37:48;;;;;;;8.85;1.30;;;;;;;13.59;100.00;101422.44;5040418;28;20031;-47
2022/10/19 09:40:17;;;;;;;5.25;1.60;;;;;;;13.75;100.00;101427.53;5044426;28;20520;-49
2022/10/19 09:42:42;;;;;;;6.75;1.13;;;;;;;13.88;100.00;101426.84;5036282;28;20045;-52
2022/10/19 09:45:18;;;;;;;15.50;2.58;;;;;;;13.96;100.00;101421.38;5043423;28;20043;-47
2022/10/19 09:47:47;;;;;;;14.82;2.78;;;;;;;14.00;100.00;101425.34;5043023;28;20048;-47
2022/10/19 09:50:23;;;;;;;8.95;1.23;;;;;;;13.95;100.00;101422.41;5037781;28;20509;-46
2022/10/19 09:53:02;;;;;;;10.18;2.00;;;;;;;13.89;100.00;101413.34;5042572;28;20043;-47
2022/10/19 09:55:41;;;;;;;5.50;0.65;;;;;;;13.90;100.00;101414.16;5036523;28;20172;-46
2022/10/19 09:58:12;;;;;;;7.45;1.10;;;;;;;13.91;100.00;101394.47;5036125;28;20033;-46
2022/10/19 10:00:50;;;;;;;6.90;0.70;;;;;;;13.98;100.00;101398.03;5043178;28;20383;-46
2022/10/19 10:03:21;;;;;;;8.32;1.25;;;;;;;14.00;100.00;101396.00;5042072;28;20033;-48
2022/10/19 10:05:47;;;;;;;;;;;;;;;14.05;100.00;101392.78;5038002;28;20022;-49
2022/10/19 10:08:16;;;;;;;10.23;2.22;;;;;;;14.04;100.00;101385.78;5030579;28;19966;-49
2022/10/19 10:10:46;;;;;;;14.63;1.27;;;;;;;14.18;100.00;101375.03;5034811;28;20150;-49
2022/10/19 10:13:20;;;;;;;7.60;0.85;;;;;;;14.26;100.00;101381.25;5039748;28;20457;-51
2022/10/19 10:15:54;;;;;;;11.05;2.20;;;;;;;14.40;100.00;101374.97;5048846;28;20388;-49
2022/10/19 10:18:22;;;;;;;6.10;1.15;;;;;;;14.54;100.00;101366.09;5038679;28;20128;-46
2022/10/19 10:21:22;;;;;;;12.00;2.08;;;;;;;14.75;100.00;101383.88;5032589;28;20128;-52
2022/10/19 10:23:59;;;;;;;9.43;1.92;;;;;;;14.98;100.00;101374.75;5034785;28;20060;-49
2022/10/19 10:26:25;;;;;;;12.23;1.42;;;;;;;15.06;100.00;101374.59;5040580;28;20029;-49
2022/10/19 10:28:50;;;;;;;10.93;3.15;;;;;;;15.10;100.00;101370.50;5038687;28;20041;-47
2022/10/19 10:31:28;;;;;;;7.70;1.55;;;;;;;15.10;100.00;101372.34;5038877;28;20043;-48
2022/10/19 10:34:00;;;;;;;7.18;1.10;;;;;;;15.11;100.00;101368.66;5042589;28;20471;-47
2022/10/19 10:36:28;;;;;;;11.07;1.30;;;;;;;15.13;100.00;101382.66;5042945;28;20130;-47
2022/10/19 10:39:07;;;;;;;13.63;1.92;;;;;;;14.99;100.00;101374.53;5039324;28;20021;-48
2022/10/19 10:41:42;;;;;;;7.18;2.53;;;;;;;14.75;100.00;101377.72;5036610;28;20033;-48
2022/10/19 10:44:18;;;;;;;10.90;2.20;;;;;;;14.63;100.00;101360.59;5029046;28;20040;-46
2022/10/19 10:46:56;;;;;;;4.00;0.93;;;;;;;14.57;100.00;101368.38;5033724;28;20143;-46
2022/10/19 10:49:26;;;;;;;4.95;1.45;;;;;;;14.61;100.00;101374.97;5030768;28;20086;-46
2022/10/19 10:51:57;;;;;;;4.00;1.25;;;;;;;14.69;100.00;101370.47;5043077;28;20039;-48
2022/10/19 10:54:26;;;;;;;13.93;2.57;;;;;;;14.75;100.00;101354.50;5034766;28;20021;-46
2022/10/19 10:57:02;;;;;;;4.50;1.17;;;;;;;14.87;100.00;101351.28;5037588;28;20026;-46
2022/10/19 10:59:33;;;;;;;12.88;2.30;;;;;;;14.98;100.00;101332.84;5037572;28;20061;-50
2022/10/19 11:02:40;;;;;;;16.20;2.47;;;;;;;15.18;100.00;101321.41;5038255;28;20509;-46
2022/10/19 11:05:25;;;;;;;12.57;1.52;;;;;;;15.55;100.00;101316.56;5035924;28;20083;-48
2022/10/19 11:08:17;;;;;;;6.70;0.93;;;;;;;15.80;100.00;101314.13;5040166;28;20060;-47
2022/10/19 11:11:13;;;;;;;5.53;0.95;;;;;;;16.00;100.00;101304.28;5035913;28;20495;-49
2022/10/19 11:13:52;;;;;;;12.32;3.25;;;;;;;16.35;100.00;101296.81;5038323;28;20039;-46
2022/10/19 11:16:28;;;;;;;14.95;2.35;;;;;;;16.50;100.00;101285.06;5034291;28;20041;-49
2022/10/19 11:19:01;;;;;;;10.10;2.08;;;;;;;16.54;100.00;101278.25;5037108;28;20454;-47
2022/10/19 11:21:36;;;;;;;11.00;1.13;;;;;;;16.66;100.00;101276.56;5019485;28;20040;-50
2022/10/19 11:24:14;;;;;;;8.15;1.33;;;;;;;16.85;100.00;101263.31;5038084;28;20076;-49
2022/10/19 11:27:04;;;;;;;6.03;1.23;;;;;;;16.86;100.00;101251.59;5042065;28;20037;-48
2022/10/19 11:29:45;;;;;;;7.20;1.95;;;;;;;16.83;100.00;101247.47;5042512;28;20448;-47
2022/10/19 11:32:38;;;;;;;4.25;1.90;;;;;;;17.05;100.00;101256.00;5045625;28;20039;-47
2022/10/19 11:35:35;;;;;;;5.15;2.38;;;;;;;17.02;100.00;101235.00;5042933;28;20500;-47